createdAt,value
2017-11-18T00:01:03.020Z,81.00
2017-11-18T00:03:37.912Z,81.21
2017-11-18T00:06:12.575Z,81.34
2017-11-18T00:08:47.471Z,81.70
2017-11-18T00:11:22.205Z,82.15
2017-11-18T00:13:57.038Z,82.30
2017-11-18T00:16:31.892Z,82.48
2017-11-18T00:19:06.815Z,82.35
2017-11-18T00:21:41.546Z,82.28
2017-11-18T00:24:16.196Z,82.25
2017-11-18T00:26:50.922Z,82.41
2017-11-18T00:29:25.606Z,82.43
2017-11-18T00:32:00.659Z,82.52
2017-11-18T00:34:35.511Z,82.46
2017-11-18T00:37:10.281Z,82.46
2017-11-18T00:39:45.166Z,82.62
2017-11-18T00:42:20.189Z,82.76
2017-11-18T00:44:54.921Z,82.87
2017-11-18T00:47:29.745Z,82.86
2017-11-18T00:50:04.639Z,82.97
2017-11-18T00:52:39.666Z,83.10
2017-11-18T00:55:14.544Z,83.23
2017-11-18T00:57:49.293Z,83.25
2017-11-18T01:00:24.093Z,83.40
2017-11-18T01:02:59.037Z,83.49
2017-11-18T01:05:33.670Z,83.68
2017-11-18T01:08:08.353Z,83.78
2017-11-18T01:10:43.052Z,83.84
2017-11-18T01:13:17.628Z,83.99
2017-11-18T01:15:52.521Z,84.15
2017-11-18T01:18:27.185Z,84.26
2017-11-18T01:21:02.037Z,84.53
2017-11-18T01:23:36.870Z,84.77
2017-11-18T01:26:11.733Z,84.93
2017-11-18T01:28:46.449Z,85.04
2017-11-18T01:31:21.350Z,85.17
2017-11-18T01:33:56.290Z,85.22
2017-11-18T01:36:31.260Z,85.23
2017-11-18T01:39:05.870Z,85.13
2017-11-18T01:41:41.014Z,85.17
2017-11-18T01:44:15.953Z,85.35
2017-11-18T01:46:50.464Z,85.50
2017-11-18T01:49:25.156Z,85.60
2017-11-18T01:52:00.289Z,85.61
2017-11-18T01:54:35.186Z,85.69
2017-11-18T01:57:09.909Z,85.92
2017-11-18T01:59:44.681Z,85.87
2017-11-18T02:02:30.663Z,85.91
2017-11-18T02:05:05.089Z,85.70
2017-11-18T02:07:39.698Z,85.49
2017-11-18T02:10:14.653Z,85.44
2017-11-18T02:12:48.993Z,85.13
2017-11-18T02:15:23.752Z,84.86
2017-11-18T02:17:58.737Z,84.67
2017-11-18T02:20:33.064Z,84.48
2017-11-18T02:23:07.881Z,84.36
2017-11-18T02:25:42.445Z,84.34
2017-11-18T02:28:17.039Z,84.09
2017-11-18T02:30:51.672Z,84.26
2017-11-18T02:33:26.311Z,84.42
2017-11-18T02:36:00.909Z,84.11
2017-11-18T02:38:35.557Z,84.13
2017-11-18T02:41:10.216Z,84.12
2017-11-18T02:43:45.033Z,84.02
2017-11-18T02:46:19.553Z,83.68
2017-11-18T02:48:54.186Z,83.32
2017-11-18T02:51:28.910Z,83.25
2017-11-18T02:54:03.550Z,82.81
2017-11-18T02:56:38.098Z,82.47
2017-11-18T02:59:12.758Z,82.71
2017-11-18T03:01:47.735Z,82.21
2017-11-18T03:04:22.405Z,82.05
2017-11-18T03:06:57.105Z,81.61
2017-11-18T03:09:31.705Z,81.35
2017-11-18T03:12:07.029Z,81.50
2017-11-18T03:14:41.743Z,81.25
2017-11-18T03:17:16.746Z,81.25
2017-11-18T03:19:51.626Z,80.85
2017-11-18T03:22:26.401Z,80.49
2017-11-18T03:25:01.181Z,80.53
2017-11-18T03:27:36.049Z,80.05
2017-11-18T03:30:10.308Z,79.78
2017-11-18T03:32:45.269Z,79.53
2017-11-18T03:35:19.902Z,79.84
2017-11-18T03:37:55.076Z,80.11
2017-11-18T03:40:29.486Z,80.21
2017-11-18T03:43:04.097Z,80.22
2017-11-18T03:45:38.842Z,80.00
2017-11-18T03:48:13.629Z,80.04
2017-11-18T03:50:48.573Z,79.92
2017-11-18T03:53:23.273Z,79.76
2017-11-18T03:55:58.290Z,79.52
2017-11-18T03:58:33.206Z,79.55
2017-11-18T04:01:07.678Z,79.33
2017-11-18T04:03:42.351Z,79.34
2017-11-18T04:06:17.390Z,79.05
2017-11-18T04:08:52.138Z,78.75
2017-11-18T04:11:26.585Z,78.51
2017-11-18T04:14:01.237Z,78.21
2017-11-18T04:16:36.380Z,78.33
2017-11-18T04:19:11.425Z,77.79
2017-11-18T04:21:46.305Z,78.17
2017-11-18T04:24:20.754Z,78.05
2017-11-18T04:26:55.821Z,77.80
2017-11-18T04:29:30.303Z,77.56
2017-11-18T04:32:05.391Z,77.63
2017-11-18T04:34:39.785Z,77.93
2017-11-18T04:37:14.653Z,77.95
2017-11-18T04:39:49.175Z,77.93
2017-11-18T04:42:23.777Z,78.03
2017-11-18T04:44:58.909Z,78.03
2017-11-18T04:47:33.434Z,78.26
2017-11-18T04:50:08.258Z,78.23
2017-11-18T04:52:43.209Z,78.33
2017-11-18T04:55:17.849Z,78.24
2017-11-18T04:57:52.778Z,78.28
2017-11-18T05:00:27.731Z,78.31
2017-11-18T05:03:02.461Z,78.29
2017-11-18T05:05:36.946Z,78.40
2017-11-18T05:08:11.677Z,78.46
2017-11-18T05:10:46.789Z,78.44
2017-11-18T05:13:21.489Z,78.64
2017-11-18T05:15:56.208Z,78.62
2017-11-18T05:18:30.989Z,78.49
2017-11-18T05:21:05.578Z,78.59
2017-11-18T05:23:40.557Z,78.61
2017-11-18T05:26:15.150Z,78.57
2017-11-18T05:28:50.077Z,78.83
2017-11-18T05:44:22.034Z,77.75
2017-11-18T05:46:56.854Z,77.79
2017-11-18T05:49:31.562Z,78.40
2017-11-18T05:52:06.480Z,78.29
2017-11-18T05:54:41.236Z,78.14
2017-11-18T05:57:16.049Z,78.42
2017-11-18T05:59:50.683Z,78.65
2017-11-18T06:02:25.399Z,78.81
2017-11-18T06:05:00.229Z,78.96
2017-11-18T06:07:35.149Z,78.89
2017-11-18T06:10:10.013Z,78.88
2017-11-18T06:12:44.726Z,79.04
2017-11-18T06:15:19.628Z,79.09
2017-11-18T06:17:54.384Z,79.13
2017-11-18T06:20:29.292Z,79.21
2017-11-18T06:23:04.152Z,78.89
2017-11-18T06:25:38.816Z,78.98
2017-11-18T06:28:13.598Z,78.99
2017-11-18T06:30:48.333Z,79.38
2017-11-18T06:33:23.143Z,79.34
2017-11-18T06:35:57.989Z,79.85
2017-11-18T06:38:32.618Z,79.44
2017-11-18T06:41:07.373Z,79.67
2017-11-18T06:43:42.242Z,79.25
2017-11-18T06:46:17.052Z,79.24
2017-11-18T06:48:51.986Z,79.04
2017-11-18T06:51:26.926Z,78.94
2017-11-18T06:54:01.753Z,78.50
2017-11-18T06:56:36.533Z,78.37
2017-11-18T06:59:11.209Z,78.30
2017-11-18T07:01:46.130Z,78.39
2017-11-18T07:04:21.063Z,78.00
2017-11-18T07:06:55.566Z,78.14
2017-11-18T07:09:30.373Z,78.11
2017-11-18T07:12:05.205Z,78.12
2017-11-18T07:14:41.056Z,78.04
2017-11-18T07:17:15.953Z,77.74
2017-11-18T07:19:50.948Z,77.66
2017-11-18T07:22:25.784Z,77.67
2017-11-18T07:25:00.477Z,77.74
2017-11-18T07:27:35.325Z,77.58
2017-11-18T07:30:10.185Z,78.11
2017-11-18T07:32:44.879Z,78.30
2017-11-18T07:35:19.633Z,78.28
2017-11-18T07:37:54.576Z,77.88
2017-11-18T07:40:29.476Z,78.05
2017-11-18T07:43:04.241Z,78.30
2017-11-18T07:45:39.225Z,78.05
2017-11-18T07:48:13.689Z,77.95
2017-11-18T07:50:48.476Z,77.86
2017-11-18T07:53:23.234Z,77.88
2017-11-18T07:55:58.166Z,77.99
2017-11-18T07:58:32.984Z,77.80
2017-11-18T08:01:07.821Z,77.50
2017-11-18T08:03:42.517Z,77.36
2017-11-18T08:06:17.185Z,77.63
2017-11-18T08:08:52.060Z,77.70
2017-11-18T08:11:26.933Z,77.22
2017-11-18T08:14:02.059Z,77.01
2017-11-18T08:16:36.934Z,77.56
2017-11-18T08:19:11.856Z,77.21
2017-11-18T08:21:46.700Z,77.58
2017-11-18T08:24:21.484Z,77.56
2017-11-18T08:26:57.041Z,77.32
2017-11-18T08:29:31.917Z,77.34
2017-11-18T08:32:06.681Z,77.36
2017-11-18T08:34:41.465Z,77.58
2017-11-18T08:37:16.354Z,77.33
2017-11-18T08:39:51.300Z,77.60
2017-11-18T08:42:26.050Z,77.65
2017-11-18T08:45:00.885Z,77.60
2017-11-18T08:47:35.973Z,77.95
2017-11-18T08:50:10.664Z,77.85
2017-11-18T08:52:45.702Z,77.79
2017-11-18T08:55:20.264Z,77.50
2017-11-18T08:57:54.936Z,77.72
2017-11-18T09:00:29.651Z,77.70
2017-11-18T09:03:04.513Z,77.79
2017-11-18T09:05:39.405Z,77.70
2017-11-18T09:08:14.330Z,77.45
2017-11-18T09:10:49.184Z,77.88
2017-11-18T09:13:23.934Z,77.88
2017-11-18T09:15:58.946Z,77.56
2017-11-18T09:18:33.737Z,77.68
2017-11-18T09:21:08.441Z,78.15
2017-11-18T09:23:43.585Z,77.97
2017-11-18T09:26:18.680Z,77.84
2017-11-18T09:28:53.501Z,78.17
2017-11-18T09:31:28.268Z,78.12
2017-11-18T09:34:04.257Z,77.99
2017-11-18T09:36:38.921Z,77.86
2017-11-18T09:39:13.689Z,77.82
2017-11-18T09:41:48.493Z,77.91
2017-11-18T09:44:23.317Z,77.41
2017-11-18T09:46:57.939Z,77.32
2017-11-18T09:49:32.989Z,77.87
2017-11-18T09:52:07.789Z,77.78
2017-11-18T09:54:42.757Z,77.33
2017-11-18T09:57:17.381Z,77.00
2017-11-18T09:59:52.414Z,77.11
2017-11-18T10:02:27.363Z,77.27
2017-11-18T10:05:02.494Z,77.23
2017-11-18T10:07:37.001Z,77.60
2017-11-18T10:10:11.742Z,77.33
2017-11-18T10:12:46.780Z,77.50
2017-11-18T10:15:21.487Z,77.38
2017-11-18T10:17:56.219Z,77.72
2017-11-18T10:20:30.969Z,77.20
2017-11-18T10:23:05.873Z,76.88
2017-11-18T10:25:40.600Z,76.28
2017-11-18T10:28:15.282Z,76.35
2017-11-18T10:30:49.980Z,76.33
2017-11-18T10:33:24.909Z,75.94
2017-11-18T10:35:59.540Z,76.46
2017-11-18T10:38:34.989Z,75.80
2017-11-18T10:41:09.717Z,75.94
2017-11-18T10:43:44.237Z,75.85
2017-11-18T10:46:19.172Z,75.21
2017-11-18T10:48:54.045Z,74.80
2017-11-18T10:51:28.928Z,74.89
2017-11-18T10:54:03.837Z,74.64
2017-11-18T10:56:39.505Z,75.53
2017-11-18T10:59:14.349Z,75.04
2017-11-18T11:01:48.670Z,75.24
2017-11-18T11:04:23.187Z,74.93
2017-11-18T11:06:58.125Z,76.06
2017-11-18T11:09:32.426Z,75.16
2017-11-18T11:12:07.594Z,74.50
2017-11-18T11:14:42.211Z,74.53
2017-11-18T11:17:16.834Z,74.52
2017-11-18T11:19:51.977Z,75.24
2017-11-18T11:22:26.818Z,74.77
2017-11-18T11:25:01.501Z,74.84
2017-11-18T11:27:36.381Z,75.44
2017-11-18T11:30:10.741Z,75.32
2017-11-18T11:32:45.905Z,75.33
2017-11-18T11:35:20.781Z,75.46
2017-11-18T11:37:55.695Z,75.81
2017-11-18T11:40:30.344Z,75.91
2017-11-18T11:43:05.269Z,76.70
2017-11-18T11:45:39.821Z,76.40
2017-11-18T11:48:14.300Z,76.62
2017-11-18T11:50:48.815Z,76.76
2017-11-18T11:53:23.434Z,76.56
2017-11-18T11:55:58.353Z,77.42
2017-11-18T11:58:32.989Z,76.48
2017-11-18T12:01:08.145Z,76.28
2017-11-18T12:03:42.540Z,76.58
2017-11-18T12:06:17.402Z,76.79
2017-11-18T12:08:52.426Z,76.54
2017-11-18T12:11:27.333Z,77.08
2017-11-18T12:14:01.910Z,77.30
2017-11-18T12:16:36.383Z,77.61
2017-11-18T12:19:11.380Z,77.30
2017-11-18T12:21:46.184Z,77.78
2017-11-18T12:24:20.544Z,77.80
2017-11-18T12:26:55.245Z,77.51
2017-11-18T12:29:30.044Z,78.01
2017-11-18T12:32:04.483Z,78.07
2017-11-18T12:34:39.184Z,78.10
2017-11-18T12:37:14.221Z,78.01
2017-11-18T12:39:48.893Z,78.23
2017-11-18T12:42:23.344Z,78.76
2017-11-18T12:44:58.249Z,79.19
2017-11-18T12:47:33.177Z,79.25
2017-11-18T12:50:08.205Z,79.49
2017-11-18T12:52:42.719Z,79.85
2017-11-18T12:55:17.252Z,80.25
2017-11-18T12:57:52.221Z,80.87
2017-11-18T13:00:26.977Z,82.18
2017-11-18T13:03:01.911Z,82.74
2017-11-18T13:05:36.632Z,83.65
2017-11-18T13:08:11.480Z,85.42
2017-11-18T13:10:46.528Z,84.30
2017-11-18T13:13:21.481Z,84.94
2017-11-18T13:15:56.401Z,86.29
2017-11-18T13:18:31.226Z,87.20
2017-11-18T13:21:06.157Z,88.66
2017-11-18T13:23:40.937Z,89.41
2017-11-18T13:26:15.715Z,90.25
2017-11-18T13:28:50.761Z,91.93
2017-11-18T13:31:25.672Z,92.86
2017-11-18T13:34:00.210Z,93.93
2017-11-18T13:36:35.227Z,94.23
2017-11-18T13:39:10.076Z,94.28
2017-11-18T13:41:44.820Z,93.94
2017-11-18T13:44:19.737Z,94.01
2017-11-18T13:46:54.800Z,93.65
2017-11-18T13:49:29.713Z,93.82
2017-11-18T13:52:04.546Z,93.00
2017-11-18T13:54:39.509Z,93.00
2017-11-18T13:57:14.200Z,92.66
2017-11-18T13:59:49.252Z,92.05
2017-11-18T14:02:23.841Z,92.01
2017-11-18T14:04:58.224Z,92.45
2017-11-18T14:07:32.985Z,92.04
2017-11-18T14:10:07.713Z,91.41
2017-11-18T14:12:42.870Z,90.95
2017-11-18T14:15:17.656Z,91.49
2017-11-18T14:17:52.645Z,91.92
2017-11-18T14:20:27.353Z,93.04
2017-11-18T14:23:01.700Z,92.50
2017-11-18T14:25:36.603Z,91.83
2017-11-18T14:28:11.420Z,92.30
2017-11-18T14:30:46.256Z,92.75
2017-11-18T14:33:20.932Z,93.15
2017-11-18T14:35:55.801Z,93.34
2017-11-18T14:38:30.729Z,93.79
2017-11-18T14:41:05.322Z,94.12
2017-11-18T14:43:40.365Z,94.18
2017-11-18T14:46:15.161Z,94.29
2017-11-18T14:48:49.456Z,94.30
2017-11-18T14:51:24.746Z,94.75
2017-11-18T14:53:59.292Z,95.28
2017-11-18T14:56:33.973Z,95.24
2017-11-18T14:59:08.518Z,95.06
2017-11-18T15:01:43.125Z,94.93
2017-11-18T15:04:17.881Z,95.16
2017-11-18T15:06:52.407Z,95.33
2017-11-18T15:09:27.116Z,95.39
2017-11-18T15:12:01.569Z,95.16
2017-11-18T15:14:53.861Z,95.26
2017-11-18T15:17:33.625Z,95.25
2017-11-18T15:20:13.269Z,95.19
2017-11-18T15:22:52.604Z,95.51
2017-11-18T15:25:32.209Z,94.95
2017-11-18T15:28:11.707Z,94.63
2017-11-18T15:30:51.249Z,94.88
2017-11-18T15:47:19.091Z,93.59
2017-11-18T15:49:56.261Z,93.63
2017-11-18T15:52:35.894Z,93.73
2017-11-18T16:08:41.916Z,93.54
2017-11-18T16:11:16.810Z,93.47
2017-11-18T16:13:51.394Z,93.33
2017-11-18T16:16:26.160Z,93.39
2017-11-18T16:19:00.793Z,93.44
2017-11-18T16:21:35.418Z,93.76
2017-11-18T16:24:10.177Z,93.72
2017-11-18T16:26:44.781Z,93.92
2017-11-18T16:29:19.457Z,94.34
2017-11-18T16:31:54.254Z,94.23
2017-11-18T16:34:28.925Z,94.25
2017-11-18T16:37:03.609Z,94.20
2017-11-18T16:39:38.247Z,94.11
2017-11-18T16:42:13.021Z,94.29
2017-11-18T16:44:47.552Z,94.58
2017-11-18T16:47:22.305Z,94.90
2017-11-18T16:49:56.943Z,95.08
2017-11-18T16:52:31.560Z,95.23
2017-11-18T16:55:06.094Z,95.22
2017-11-18T16:57:40.889Z,95.16
2017-11-18T17:00:15.653Z,95.16
2017-11-18T17:02:50.121Z,95.36
2017-11-18T17:05:24.777Z,95.41
2017-11-18T17:07:59.332Z,95.55
2017-11-18T17:10:33.954Z,95.59
2017-11-18T17:13:08.436Z,95.59
2017-11-18T17:15:43.206Z,95.62
2017-11-18T17:18:17.797Z,95.68
2017-11-18T17:20:52.396Z,95.84
2017-11-18T17:23:26.977Z,96.05
2017-11-18T17:26:01.905Z,96.18
2017-11-18T17:28:36.578Z,96.22
2017-11-18T17:31:11.364Z,96.43
2017-11-18T17:33:46.193Z,96.37
2017-11-18T17:36:20.582Z,96.52
2017-11-18T17:38:55.516Z,96.67
2017-11-18T17:41:30.181Z,96.89
2017-11-18T17:44:04.973Z,97.12
2017-11-18T17:46:40.029Z,97.22
2017-11-18T17:49:14.729Z,97.21
2017-11-18T17:51:49.268Z,97.08
2017-11-18T17:54:23.813Z,96.88
2017-11-18T17:56:58.359Z,96.42
2017-11-18T17:59:33.141Z,96.01
2017-11-18T18:02:07.926Z,95.99
2017-11-18T18:04:42.597Z,96.12
2017-11-18T18:07:17.157Z,96.29
2017-11-18T18:09:51.906Z,96.47
2017-11-18T18:12:26.594Z,96.66
2017-11-18T18:15:01.243Z,96.92
2017-11-18T18:17:35.840Z,97.00
2017-11-18T18:20:10.817Z,96.94
2017-11-18T18:22:45.337Z,96.96
2017-11-18T18:25:20.244Z,96.90
2017-11-18T18:27:55.074Z,96.96
2017-11-18T18:30:30.006Z,96.92
2017-11-18T18:33:04.853Z,96.92
2017-11-18T18:35:39.561Z,97.05
2017-11-18T18:38:14.253Z,96.93
2017-11-18T18:40:48.608Z,96.95
2017-11-18T18:43:23.774Z,97.02
2017-11-18T18:45:58.797Z,96.95
2017-11-18T18:48:33.197Z,96.95
2017-11-18T18:51:08.037Z,96.94
2017-11-18T18:53:42.489Z,96.96
2017-11-18T18:56:17.439Z,97.01
2017-11-18T18:58:52.157Z,96.87
2017-11-18T19:01:27.012Z,96.87
2017-11-18T19:04:01.813Z,96.77
2017-11-18T19:06:36.474Z,96.83
2017-11-18T19:09:10.937Z,96.74
2017-11-18T19:11:45.546Z,96.70
2017-11-18T19:14:20.714Z,96.75
2017-11-18T19:16:55.413Z,96.69
2017-11-18T19:19:29.980Z,96.61
2017-11-18T19:22:04.820Z,96.41
2017-11-18T19:24:39.265Z,96.21
2017-11-18T19:27:14.069Z,96.07
2017-11-18T19:29:48.702Z,96.02
2017-11-18T19:32:23.628Z,95.96
2017-11-18T19:34:58.417Z,95.91
2017-11-18T19:37:33.209Z,95.89
2017-11-18T19:40:07.677Z,95.96
2017-11-18T19:42:42.745Z,95.85
2017-11-18T19:45:17.780Z,95.57
2017-11-18T19:47:52.381Z,95.49
2017-11-18T19:50:27.334Z,95.49
2017-11-18T19:53:02.100Z,95.12
2017-11-18T19:55:36.770Z,95.05
2017-11-18T19:58:11.817Z,94.86
2017-11-18T20:00:46.129Z,94.72
2017-11-18T20:03:20.833Z,94.53
2017-11-18T20:05:55.416Z,94.66
2017-11-18T20:08:29.998Z,94.56
2017-11-18T20:11:05.069Z,94.53
2017-11-18T20:13:39.880Z,94.63
2017-11-18T20:16:14.444Z,94.57
2017-11-18T20:18:49.057Z,94.16
2017-11-18T20:21:24.078Z,93.98
2017-11-18T20:23:58.662Z,93.91
2017-11-18T20:26:33.755Z,93.83
2017-11-18T20:29:08.316Z,93.90
2017-11-18T20:31:43.313Z,93.96
2017-11-18T20:34:17.748Z,94.00
2017-11-18T20:36:52.449Z,93.98
2017-11-18T20:39:27.396Z,93.88
2017-11-18T20:42:03.446Z,93.85
2017-11-18T20:44:37.970Z,93.78
2017-11-18T20:47:12.717Z,93.92
2017-11-18T20:49:47.405Z,94.06
2017-11-18T20:52:22.190Z,93.97
2017-11-18T20:54:57.089Z,94.05
2017-11-18T20:57:31.733Z,93.92
2017-11-18T21:00:06.140Z,93.88
2017-11-18T21:02:41.390Z,93.72
2017-11-18T21:05:16.392Z,93.63
2017-11-18T21:07:51.107Z,93.62
2017-11-18T21:10:25.925Z,93.52
2017-11-18T21:13:00.622Z,93.50
2017-11-18T21:15:35.281Z,93.58
2017-11-18T21:18:10.161Z,93.73
2017-11-18T21:20:44.857Z,93.80
2017-11-18T21:23:19.988Z,93.67
2017-11-18T21:25:54.689Z,93.80
2017-11-18T21:28:29.495Z,93.75
2017-11-18T21:31:04.225Z,93.77
2017-11-18T21:33:38.972Z,93.55
2017-11-18T21:36:13.672Z,93.80
2017-11-18T21:38:48.220Z,94.17
2017-11-18T21:41:23.134Z,94.31
2017-11-18T21:43:58.473Z,94.22
2017-11-18T21:46:33.098Z,94.22
2017-11-18T21:49:08.015Z,94.31
2017-11-18T21:51:42.732Z,94.39
2017-11-18T21:54:17.376Z,94.35
2017-11-18T21:56:52.314Z,94.21
2017-11-18T21:59:27.361Z,94.18
2017-11-18T22:02:01.913Z,94.23
2017-11-18T22:04:36.612Z,94.21
2017-11-18T22:07:11.545Z,94.00
2017-11-18T22:09:46.285Z,94.02
2017-11-18T22:12:21.176Z,93.98
2017-11-18T22:14:56.136Z,93.97
2017-11-18T22:17:30.901Z,93.97
2017-11-18T22:20:05.798Z,94.06
2017-11-18T22:22:40.541Z,94.21
2017-11-18T22:25:15.006Z,94.24
2017-11-18T22:27:49.889Z,94.33
2017-11-18T22:30:24.461Z,94.20
2017-11-18T22:32:59.446Z,94.39
2017-11-18T22:35:34.056Z,94.49
2017-11-18T22:38:08.877Z,94.49
2017-11-18T22:40:43.608Z,94.66
2017-11-18T22:43:18.385Z,94.81
2017-11-18T22:45:53.212Z,94.72
2017-11-18T22:48:27.969Z,94.54
2017-11-18T22:51:02.828Z,94.46
2017-11-18T22:53:37.649Z,94.47
2017-11-18T22:56:12.254Z,94.40
2017-11-18T22:58:47.539Z,94.58
2017-11-18T23:01:22.878Z,94.78
2017-11-18T23:03:57.689Z,95.09
2017-11-18T23:06:32.441Z,95.12
2017-11-18T23:09:07.349Z,95.22
2017-11-18T23:11:42.197Z,95.17
2017-11-18T23:14:17.021Z,95.02
2017-11-18T23:16:51.987Z,94.82
2017-11-18T23:19:26.878Z,94.69
2017-11-18T23:22:01.678Z,94.82
2017-11-18T23:24:36.381Z,94.83
2017-11-18T23:27:11.304Z,94.70
2017-11-18T23:29:45.744Z,94.55
2017-11-18T23:32:20.659Z,94.36
2017-11-18T23:34:55.278Z,94.30
2017-11-18T23:37:30.005Z,94.09
2017-11-18T23:40:04.680Z,94.12
2017-11-18T23:42:39.060Z,94.04
2017-11-18T23:45:13.857Z,94.03
2017-11-18T23:47:50.161Z,94.21
2017-11-18T23:50:24.462Z,94.19
2017-11-18T23:52:59.542Z,94.31
2017-11-18T23:55:34.369Z,94.39
2017-11-18T23:58:09.274Z,94.34
